Aktualne dane pomiarowe

Uwaga, wersja testowa! Automatyczne pobieranie danych za pomocą narzędzi lub skryptów to umożliwiających jest zabronione.

Dane meteo z obszaru Polski uzyskane na podstawie depesz SYNOP pobieranych co godzinę z NWS. Najedź myszką na symbol przedstawiony w tabeli, aby uzyskać informacje co do jego znaczenia. Prosimy pamiętać, że to testowa wersja strony, która jeszcze nie jest ukończona. Stworzono również jest krótki FAQ dotyczący korzystania z tej podstrony Anomalie temperatury w chwili obecnej odniesione są do okresu referencyjnego 1951-2016. Okres ten będzie później zmieniony na 1981-2010. Kliknij ikonę aby pobrać plik CSV. Kliknij ikonę aby wygenerować mapę synoptyczną dla danego terminu.

Wybierz Datę:    

        

Łask (12454)

Dane terminowe dla wybranej stacji. Kliknij datę, aby otrzymać dane z tego terminu dla wszystkich stacji.

TemperaturaZachmurzenieWiatrCiśnienieOpadyPogoda
 Data t td wb tx tn tg rh  Nt Nl Cl Cm Ch ws wd g1 g2 wx mslp ppp ch 24h 12h t ww ww w1 w2  
2019-06-19 22:00:00 20.1 16.7 17.7--- 8135.0wx-3wx---1010.2 988.1 -0.8---------
2019-06-19 21:00:00 20.2 14.8 16.6--- 7150.0wxwxwxwxwx3wx---1010.3 988.2 -0.3---------
2019-06-19 20:00:00 21.0 16.4 17.9--- 7540.0wxwxwxwxwx4wx---1010.4 988.4 0.6---wx-w1--
2019-06-19 19:00:00 22.0 16.2 18.1--- 7045.0wxwxwxwxwx5wx---1010.9 988.9 1.2---wx---
2019-06-19 18:00:00 25.5 16.3 19.5 30.1 21.7- 5745.0wx-5wx---1010.2 988.5 0.6- 0.012------
2019-06-19 17:00:00 27.1 16.6 20.2--- 5345.0wxwxwxwxwx3wx---1009.3 987.8 -1.0---------
2019-06-19 16:00:00 28.5 14.1 19.5--- 4150.0wxwxwxwxwx4wx---1009.2 987.8 -1.4---------
2019-06-19 15:00:00 28.5 13.9 19.4--- 4130.0wxwxwxwxwx4wx-11-1009.4 988.0 -1.7---------
2019-06-19 14:00:00 29.0 15.0 20.1--- 4330.0wxwxwx2wx-7-1010.2 988.8 -1.5---wx---
2019-06-19 13:00:00 29.0 14.2 19.7--- 4040.0wxwxwx3wx---1010.6 989.2 -1.6---------
2019-06-19 12:00:00 29.6 15.1 20.4--- 4130.0wxwxwx1wx---1011.1 989.7 -1.6- 0.06------
2019-06-19 11:00:00 27.8 16.2 20.3--- 4935.0wxwxwx3wx-10-1011.8 990.3 -1.3---------
2019-06-19 10:00:00 27.4 16.7 20.4--- 5235.0wxwxwx3wx---1012.4 990.8 -1.3---------
2019-06-19 09:00:00 26.0 17.1 20.1--- 5830.0wxwxwxwx3wx---1013.0 991.3 -1.1---------
2019-06-19 08:00:00 24.3 17.4 19.7--- 6529.0wxwxwxwx4wx---1013.4 991.6 -0.9---------
2019-06-19 07:00:00 23.8 17.1 19.3--- 6630.0wx-4wx---1013.9 992.0 -0.6---------
2019-06-19 06:00:00 21.6 16.3 18.0 23.4 16.3- 7235.0wx-wx4wx---1014.5 992.4 -0.2 0.0 0.012------
2019-06-19 05:00:00 20.0 15.7 17.1--- 7635.0wx-wx3wx---1014.7 992.5 -0.5---------
2019-06-19 04:00:00 17.5 15.0 15.8--- 8530.0wx-wx2wx---1014.9 992.5 -0.8---------
2019-06-19 03:00:00 16.9 14.3 15.1--- 8530.0wx-3wx---1015.1 992.6 -0.9---------
2019-06-19 02:00:00 16.4 13.5 14.4--- 8335.0wx-2wx---1015.5 993.0 -0.9---------
2019-06-19 01:00:00 17.0 13.5 14.6--- 8040.0wx-3wx---1015.7 993.2 -1.2---------
2019-06-19 00:00:00 17.6 13.0 14.6--- 7440.0wx-3wx---1016.0 993.6 -1.3- 0.06------
2019-06-18 23:00:00 18.2 12.9 14.8--- 7140.0wx-3wx---1016.3 993.9 -0.9---------
2019-06-18 22:00:00 18.6 13.3 15.1--- 7145.0wx-1wx---1016.8 994.5 -0.1---------
2019-06-18 21:00:00 19.1 13.5 15.4--- 7045.0wx-wxwx2wx---1017.3 994.9 0.5---------
2019-06-18 20:00:00 19.9 13.8 15.9--- 6850.0wx-wx2wx---1017.1 994.8 0.3---------
2019-06-18 19:00:00 20.6 13.4 16.0--- 6355.0wx-wxwx2wx---1016.8 994.6 -0.1---------
2019-06-18 18:00:00 23.4 12.7 16.8 26.2 19.2- 5160.0wxwxwxwx4wx---1016.4 994.4 -0.8- 0.012------
2019-06-18 17:00:00 24.5 12.1 16.9--- 4665.0wxwxwxwx4wx---1016.5 994.6 -1.3---------
2019-06-18 16:00:00 25.2 11.9 17.1--- 4465.0wxwxwxwx5wx---1016.7 994.8 -1.5---------
2019-06-18 15:00:00 25.6 12.2 17.4--- 4365.0wxwxwxwx5wx---1017.1 995.2 -1.7---------
2019-06-18 14:00:00 25.3 12.5 17.5--- 4560.0wxwxwxwxwx5wx---1017.8 995.9 -1.5---------
2019-06-18 13:00:00 25.6 12.6 17.6--- 4560.0wxwxwxwx2wx---1018.2 996.3 -1.5---------
2019-06-18 12:00:00 25.5 12.5 17.5--- 4465.0wxwxwxwx5wx---1018.8 996.9 -1.2- 0.06------
2019-06-18 11:00:00 24.0 13.2 17.3--- 5160.0wxwxwxwxwx4wx---1019.4 997.4 -1.0---------
2019-06-18 10:00:00 23.4 12.6 16.7--- 5160.0wxwxwxwx3wx---1019.9 997.8 -0.8---------
2019-06-18 09:00:00 23.1 13.8 17.2--- 5660.0wxwxwxwx3wx-9-1020.2 998.1 -0.7---------
2019-06-18 08:00:00 21.8 13.9 16.7--- 6155.0wxwxwxwx4wx---1020.6 998.4 -0.3---------
2019-06-18 07:00:00 20.7 13.5 16.1--- 6360.0wx-wx3wx---1020.9 998.6 0.0---------
2019-06-18 06:00:00 19.3 12.1 14.8 21.8 13.5- 6360.0wx-wx4wx---1021.3 998.8 0.2 0.0 0.012------
2019-06-18 05:00:00 17.1 11.2 13.4--- 6855.0wx-wx4wx---1021.3 998.7 0.2---------
2019-06-18 04:00:00 14.7 11.1 12.3--- 7950.0wx-wx3wx---1021.4 998.6 0.0---------
2019-06-18 03:00:00 13.5 10.5 11.5--- 8245.0wx-3wx---1021.6 998.7 -0.2---------
2019-06-18 02:00:00 14.0 10.6 11.8--- 8050.0wx-2wx---1021.4 998.6 -0.4---------
2019-06-18 01:00:00 14.5 10.7 12.0--- 7850.0wx-1wx---1021.5 998.6 -0.3---------
2019-06-18 00:00:00 15.2 11.2 12.6--- 7750.0wx-2wx---1021.6 998.8 0.0- 0.06------
1.4 ms

 

Print Friendly, PDF & Email